createdAt,value
2023-01-22T00:01:21.300Z,100843.06
2023-01-22T00:03:49.838Z,100835.03
2023-01-22T00:06:17.959Z,100840.09
2023-01-22T00:08:46.761Z,100831.06
2023-01-22T00:11:17.146Z,100844.53
2023-01-22T00:13:45.733Z,100840.50
2023-01-22T00:16:14.691Z,100849.09
2023-01-22T00:18:42.869Z,100851.50
2023-01-22T00:21:12.231Z,100857.34
2023-01-22T00:23:40.854Z,100852.00
2023-01-22T00:26:12.256Z,100859.28
2023-01-22T00:28:42.616Z,100865.53
2023-01-22T00:31:13.014Z,100868.59
2023-01-22T00:33:42.028Z,100866.59
2023-01-22T00:36:12.806Z,100859.44
2023-01-22T00:38:41.200Z,100871.47
2023-01-22T00:41:10.078Z,100861.63
2023-01-22T00:43:39.682Z,100860.56
2023-01-22T00:46:10.648Z,100859.44
2023-01-22T00:48:38.975Z,100865.91
2023-01-22T00:51:08.879Z,100858.94
2023-01-22T00:53:37.478Z,100861.03
2023-01-22T00:56:06.443Z,100870.09
2023-01-22T00:58:35.099Z,100870.00
2023-01-22T01:01:03.503Z,100866.41
2023-01-22T01:03:33.443Z,100871.97
2023-01-22T01:06:04.119Z,100864.16
2023-01-22T01:08:34.670Z,100867.41
2023-01-22T01:11:05.285Z,100868.78
2023-01-22T01:13:38.561Z,100874.16
2023-01-22T01:16:08.683Z,100871.09
2023-01-22T01:18:38.521Z,100877.03
2023-01-22T01:21:07.603Z,100868.47
2023-01-22T01:23:37.304Z,100874.81
2023-01-22T01:26:09.811Z,100872.84
2023-01-22T01:28:38.495Z,100873.56
2023-01-22T01:31:08.830Z,100873.34
2023-01-22T01:33:38.524Z,100867.28
2023-01-22T01:36:09.243Z,100878.41
2023-01-22T01:38:38.606Z,100874.28
2023-01-22T01:41:06.918Z,100872.53
2023-01-22T01:43:35.547Z,100866.47
2023-01-22T01:46:06.614Z,100861.53
2023-01-22T01:48:40.216Z,100856.56
2023-01-22T01:51:12.537Z,100857.41
2023-01-22T01:53:42.170Z,100856.09
2023-01-22T01:56:14.740Z,100854.56
2023-01-22T01:58:45.935Z,100847.34
2023-01-22T02:01:16.522Z,100857.97
2023-01-22T02:03:47.491Z,100853.84
2023-01-22T02:06:17.961Z,100850.66
2023-01-22T02:08:49.421Z,100847.47
2023-01-22T02:11:19.206Z,100850.97
2023-01-22T02:13:52.398Z,100851.97
2023-01-22T02:16:20.621Z,100850.97
2023-01-22T02:18:50.570Z,100856.75
2023-01-22T02:21:40.101Z,100852.03
2023-01-22T02:24:10.869Z,100850.72
2023-01-22T02:26:40.050Z,100841.91
2023-01-22T02:29:09.325Z,100851.59
2023-01-22T02:31:38.345Z,100842.50
2023-01-22T02:34:07.787Z,100850.22
2023-01-22T02:36:39.791Z,100841.72
2023-01-22T02:39:08.463Z,100847.34
2023-01-22T02:41:36.640Z,100843.66
2023-01-22T02:44:05.222Z,100849.22
2023-01-22T02:46:33.302Z,100846.94
2023-01-22T02:49:01.602Z,100843.16
2023-01-22T02:51:29.679Z,100843.22
2023-01-22T02:53:59.219Z,100854.38
2023-01-22T02:56:28.372Z,100850.97
2023-01-22T02:58:56.523Z,100858.66
2023-01-22T03:01:25.933Z,100849.56
2023-01-22T03:03:55.678Z,100855.09
2023-01-22T03:06:26.325Z,100854.91
2023-01-22T03:08:56.199Z,100852.06
2023-01-22T03:11:27.271Z,100856.34
2023-01-22T03:14:13.491Z,100851.50
2023-01-22T03:16:59.422Z,100848.72
2023-01-22T03:19:45.105Z,100856.28
2023-01-22T03:22:14.360Z,100855.84
2023-01-22T03:24:42.535Z,100860.31
2023-01-22T03:27:12.237Z,100858.41
2023-01-22T03:29:40.363Z,100858.41
2023-01-22T03:32:08.489Z,100856.97
2023-01-22T03:34:36.693Z,100864.59
2023-01-22T03:37:09.817Z,100864.66
2023-01-22T03:39:37.961Z,100864.06
2023-01-22T03:42:06.364Z,100865.75
2023-01-22T03:44:37.917Z,100868.06
2023-01-22T03:47:06.067Z,100866.75
2023-01-22T03:49:34.162Z,100871.31
2023-01-22T03:52:02.245Z,100864.66
2023-01-22T03:54:30.390Z,100866.53
2023-01-22T03:56:58.589Z,100862.69
2023-01-22T03:59:26.678Z,100862.31
2023-01-22T04:01:56.215Z,100863.56
2023-01-22T04:04:24.571Z,100864.66
2023-01-22T04:06:52.756Z,100869.22
2023-01-22T04:09:20.889Z,100874.28
2023-01-22T04:11:49.014Z,100870.09
2023-01-22T04:14:17.241Z,100876.09
2023-01-22T04:16:45.411Z,100877.25
2023-01-22T04:19:15.243Z,100877.03
2023-01-22T04:21:43.686Z,100884.50
2023-01-22T04:24:11.836Z,100883.84
2023-01-22T04:26:43.906Z,100887.72
2023-01-22T04:29:12.130Z,100881.22
2023-01-22T04:31:40.358Z,100883.91
2023-01-22T04:34:08.596Z,100891.44
2023-01-22T04:36:38.199Z,100896.78
2023-01-22T04:39:06.349Z,100893.53
2023-01-22T04:41:34.452Z,100898.09
2023-01-22T04:44:02.544Z,100896.28
2023-01-22T04:46:30.619Z,100890.94
2023-01-22T04:48:58.754Z,100895.72
2023-01-22T04:51:28.030Z,100897.56
2023-01-22T04:53:57.571Z,100899.47
2023-01-22T04:56:25.766Z,100886.53
2023-01-22T04:58:53.898Z,100892.88
2023-01-22T05:01:23.076Z,100890.78
2023-01-22T05:03:51.269Z,100913.75
2023-01-22T05:06:19.333Z,100905.41
2023-01-22T05:08:47.478Z,100907.28
2023-01-22T05:11:16.978Z,100923.47
2023-01-22T05:13:45.026Z,100922.84
2023-01-22T05:16:13.256Z,100919.75
2023-01-22T05:18:41.423Z,100943.00
2023-01-22T05:21:10.783Z,100940.34
2023-01-22T05:23:38.957Z,100943.13
2023-01-22T05:26:07.448Z,100942.53
2023-01-22T05:28:37.319Z,100945.50
2023-01-22T05:31:05.574Z,100949.50
2023-01-22T05:33:34.349Z,100953.25
2023-01-22T05:36:04.000Z,100957.06
2023-01-22T05:38:32.469Z,100965.31
2023-01-22T05:41:00.833Z,100974.97
2023-01-22T05:43:28.964Z,100978.22
2023-01-22T05:46:02.656Z,100968.88
2023-01-22T05:48:30.855Z,100967.03
2023-01-22T05:50:59.058Z,100976.97
2023-01-22T05:53:27.137Z,100970.66
2023-01-22T05:55:55.279Z,100969.28
2023-01-22T05:58:23.298Z,100987.44
2023-01-22T06:00:53.943Z,100984.53
2023-01-22T06:03:23.520Z,100988.81
2023-01-22T06:06:00.097Z,100985.03
2023-01-22T06:08:28.859Z,100986.44
2023-01-22T06:11:03.658Z,100983.75
2023-01-22T06:13:32.349Z,100989.03
2023-01-22T06:16:00.707Z,100995.47
2023-01-22T06:18:30.654Z,101006.34
2023-01-22T06:21:00.130Z,101008.00
2023-01-22T06:23:29.749Z,101023.78
2023-01-22T06:25:59.858Z,101011.78
2023-01-22T06:28:28.238Z,101024.59
2023-01-22T06:30:58.796Z,101019.56
2023-01-22T06:33:27.181Z,101027.09
2023-01-22T06:35:57.385Z,101034.56
2023-01-22T06:38:25.786Z,101021.16
2023-01-22T06:40:54.767Z,101025.19
2023-01-22T06:43:23.077Z,101035.91
2023-01-22T06:45:51.500Z,101038.84
2023-01-22T06:48:19.811Z,101031.09
2023-01-22T06:50:48.463Z,101024.22
2023-01-22T06:53:18.064Z,101032.72
2023-01-22T06:55:46.092Z,101046.78
2023-01-22T06:58:14.281Z,101035.59
2023-01-22T07:00:42.447Z,101034.72
2023-01-22T07:03:10.649Z,101036.91
2023-01-22T07:05:38.690Z,101025.94
2023-01-22T07:08:07.020Z,101023.56
2023-01-22T07:10:36.571Z,101010.28
2023-01-22T07:13:04.693Z,101015.91
2023-01-22T07:15:32.809Z,101034.34
2023-01-22T07:18:00.940Z,101029.84
2023-01-22T07:20:29.050Z,101039.13
2023-01-22T07:23:00.258Z,101047.41
2023-01-22T07:25:28.815Z,101054.16
2023-01-22T07:28:02.169Z,101043.03
2023-01-22T07:30:30.660Z,101049.22
2023-01-22T07:33:00.430Z,101061.88
2023-01-22T07:35:28.917Z,101061.50
2023-01-22T07:37:58.490Z,101062.25
2023-01-22T07:40:28.478Z,101072.31
2023-01-22T07:42:57.311Z,101050.94
2023-01-22T07:45:27.540Z,101062.38
2023-01-22T07:47:58.842Z,101070.44
2023-01-22T07:50:29.623Z,101072.59
2023-01-22T07:52:58.171Z,101063.09
2023-01-22T07:55:26.983Z,101070.00
2023-01-22T07:58:00.099Z,101066.09
2023-01-22T08:00:29.926Z,101070.25
2023-01-22T08:02:58.125Z,101082.63
2023-01-22T08:05:26.239Z,101079.13
2023-01-22T08:07:54.368Z,101080.63
2023-01-22T08:10:22.506Z,101087.66
2023-01-22T08:12:50.570Z,101082.19
2023-01-22T08:15:18.911Z,101079.66
2023-01-22T08:17:50.118Z,101086.66
2023-01-22T08:20:19.237Z,101085.50
2023-01-22T08:22:47.641Z,101095.28
2023-01-22T08:25:15.868Z,101088.69
2023-01-22T08:27:44.024Z,101105.41
2023-01-22T08:30:13.232Z,101107.47
2023-01-22T08:32:42.095Z,101110.72
2023-01-22T08:35:13.079Z,101105.06
2023-01-22T08:37:43.970Z,101101.88
2023-01-22T08:40:13.876Z,101097.97
2023-01-22T08:42:42.078Z,101099.44
2023-01-22T08:45:10.893Z,101104.72
2023-01-22T08:47:39.014Z,101106.44
2023-01-22T08:50:08.903Z,101116.88
2023-01-22T08:52:38.426Z,101113.56
2023-01-22T08:55:10.019Z,101107.50
2023-01-22T08:57:38.206Z,101115.72
2023-01-22T09:00:08.947Z,101115.00
2023-01-22T09:02:37.058Z,101113.31
2023-01-22T09:05:05.620Z,101118.56
2023-01-22T09:07:34.785Z,101119.78
2023-01-22T09:10:08.157Z,101120.59
2023-01-22T09:12:36.732Z,101117.22
2023-01-22T09:15:05.263Z,101119.34
2023-01-22T09:17:33.447Z,101116.44
2023-01-22T09:20:01.847Z,101113.13
2023-01-22T09:22:30.114Z,101106.63
2023-01-22T09:24:58.264Z,101118.28
2023-01-22T09:27:27.711Z,101112.91
2023-01-22T09:29:56.012Z,101120.94
2023-01-22T09:32:24.171Z,101104.06
2023-01-22T09:34:52.389Z,101114.00
2023-01-22T09:37:20.468Z,101095.56
2023-01-22T09:39:50.839Z,101101.38
2023-01-22T09:42:22.985Z,101100.88
2023-01-22T09:44:56.716Z,101095.88
2023-01-22T09:47:34.477Z,101091.16
2023-01-22T09:50:07.478Z,101101.88
2023-01-22T09:52:38.558Z,101103.03
2023-01-22T09:55:13.494Z,101091.56
2023-01-22T09:57:45.596Z,101094.75
2023-01-22T10:00:20.184Z,101094.09
2023-01-22T10:02:52.119Z,101102.81
2023-01-22T10:05:32.898Z,101102.25
2023-01-22T10:08:07.695Z,101103.25
2023-01-22T10:10:36.602Z,101101.50
2023-01-22T10:13:14.614Z,101098.34
2023-01-22T10:15:44.595Z,101096.00
2023-01-22T10:18:23.968Z,101104.06
2023-01-22T10:20:53.014Z,101098.22
2023-01-22T10:23:23.339Z,101094.78
2023-01-22T10:25:53.870Z,101095.06
2023-01-22T10:28:26.846Z,101086.66
2023-01-22T10:30:58.994Z,101085.16
2023-01-22T10:33:29.315Z,101092.09
2023-01-22T10:35:58.141Z,101087.84
2023-01-22T10:38:30.122Z,101090.97
2023-01-22T10:41:00.913Z,101091.44
2023-01-22T10:43:36.628Z,101091.28
2023-01-22T10:46:17.219Z,101082.81
2023-01-22T10:48:45.490Z,101083.56
2023-01-22T10:51:16.882Z,101079.66
2023-01-22T10:53:49.813Z,101085.97
2023-01-22T10:56:29.717Z,101091.16
2023-01-22T10:58:59.109Z,101084.28
2023-01-22T11:01:33.638Z,101082.75
2023-01-22T11:04:13.538Z,101090.00
2023-01-22T11:06:46.076Z,101103.69
2023-01-22T11:09:19.223Z,101095.22
2023-01-22T11:11:53.523Z,101098.78
2023-01-22T11:14:25.948Z,101082.22
2023-01-22T11:17:01.105Z,101090.56
2023-01-22T11:19:41.077Z,101091.66
2023-01-22T11:22:23.337Z,101094.50
2023-01-22T11:24:52.254Z,101091.09
2023-01-22T11:27:35.454Z,101093.69
2023-01-22T11:30:24.080Z,101110.66
2023-01-22T11:33:03.105Z,101101.22
2023-01-22T11:35:38.569Z,101107.97
2023-01-22T11:38:18.417Z,101110.19
2023-01-22T11:41:02.321Z,101106.75
2023-01-22T11:43:45.656Z,101102.53
2023-01-22T11:46:37.222Z,101095.38
2023-01-22T11:49:27.887Z,101099.88
2023-01-22T11:52:12.412Z,101094.38
2023-01-22T11:54:59.613Z,101101.31
2023-01-22T11:57:34.363Z,101097.75
2023-01-22T12:00:27.338Z,101099.59
2023-01-22T12:03:44.087Z,101097.03
2023-01-22T12:06:26.188Z,101095.38
2023-01-22T12:09:05.485Z,101090.00
2023-01-22T12:11:44.699Z,101103.66
2023-01-22T12:14:37.104Z,101107.91
2023-01-22T12:17:16.957Z,101104.22
2023-01-22T12:20:04.926Z,101107.03
2023-01-22T12:22:41.866Z,101107.53
2023-01-22T12:25:20.409Z,101110.78
2023-01-22T12:27:55.402Z,101112.50
2023-01-22T12:30:27.447Z,101117.94
2023-01-22T12:32:59.502Z,101119.84
2023-01-22T12:35:30.313Z,101128.63
2023-01-22T12:38:07.518Z,101124.72
2023-01-22T12:41:02.971Z,101137.34
2023-01-22T12:43:35.699Z,101133.38
2023-01-22T12:46:12.777Z,101135.50
2023-01-22T12:48:49.659Z,101143.00
2023-01-22T12:51:28.534Z,101137.19
2023-01-22T12:54:10.067Z,101138.81
2023-01-22T12:56:38.137Z,101137.78
2023-01-22T12:59:06.215Z,101146.88
2023-01-22T13:01:36.629Z,101136.66
2023-01-22T13:04:07.688Z,101149.84
2023-01-22T13:06:38.265Z,101155.75
2023-01-22T13:09:23.200Z,101152.78
2023-01-22T13:11:51.310Z,101159.53
2023-01-22T13:14:22.611Z,101148.91
2023-01-22T13:16:54.310Z,101159.75
2023-01-22T13:19:24.834Z,101153.91
2023-01-22T13:21:53.769Z,101160.09
2023-01-22T13:24:23.254Z,101159.59
2023-01-22T13:26:55.030Z,101163.59
2023-01-22T13:29:27.207Z,101167.41
2023-01-22T13:31:57.663Z,101174.09
2023-01-22T13:34:26.935Z,101180.50
2023-01-22T13:36:55.648Z,101171.34
2023-01-22T13:39:28.310Z,101190.69
2023-01-22T13:41:58.374Z,101180.50
2023-01-22T13:44:29.327Z,101185.06
2023-01-22T13:46:58.844Z,101186.91
2023-01-22T13:49:29.323Z,101180.84
2023-01-22T13:52:00.688Z,101188.03
2023-01-22T13:54:34.593Z,101192.53
2023-01-22T13:57:02.816Z,101194.44
2023-01-22T13:59:35.139Z,101200.59
2023-01-22T14:02:22.103Z,101200.69
2023-01-22T14:04:51.210Z,101207.88
2023-01-22T14:07:27.490Z,101209.22
2023-01-22T14:09:58.064Z,101216.16
2023-01-22T14:12:30.379Z,101213.78
2023-01-22T14:14:58.828Z,101212.69
2023-01-22T14:17:30.034Z,101205.47
2023-01-22T14:19:58.462Z,101204.72
2023-01-22T14:22:26.941Z,101212.75
2023-01-22T14:24:56.763Z,101216.50
2023-01-22T14:27:28.958Z,101224.53
2023-01-22T14:29:57.417Z,101220.78
2023-01-22T14:32:26.871Z,101222.69
2023-01-22T14:34:55.016Z,101222.63
2023-01-22T14:37:23.146Z,101235.50
2023-01-22T14:39:51.219Z,101224.25
2023-01-22T14:42:20.874Z,101223.69
2023-01-22T14:44:49.003Z,101224.81
2023-01-22T14:47:17.252Z,101230.88
2023-01-22T14:49:45.399Z,101232.50
2023-01-22T14:52:14.696Z,101220.75
2023-01-22T14:54:42.878Z,101224.47
2023-01-22T14:57:11.009Z,101220.75
2023-01-22T14:59:40.671Z,101232.22
2023-01-22T15:02:10.362Z,101225.03
2023-01-22T15:04:40.796Z,101219.44
2023-01-22T15:07:09.053Z,101220.78
2023-01-22T15:09:37.191Z,101221.56
2023-01-22T15:12:06.306Z,101224.53
2023-01-22T15:14:34.519Z,101219.97
2023-01-22T15:17:04.539Z,101213.00
2023-01-22T15:19:40.952Z,101238.97
2023-01-22T15:22:09.767Z,101225.84
2023-01-22T15:24:39.547Z,101231.22
2023-01-22T15:27:08.891Z,101240.84
2023-01-22T15:29:37.243Z,101242.69
2023-01-22T15:32:07.091Z,101247.28
2023-01-22T15:34:35.205Z,101243.53
2023-01-22T15:37:05.051Z,101264.91
2023-01-22T15:39:33.324Z,101251.03
2023-01-22T15:42:01.496Z,101259.09
2023-01-22T15:44:29.657Z,101259.09
2023-01-22T15:46:59.069Z,101254.28
2023-01-22T15:49:29.751Z,101260.19
2023-01-22T15:51:57.904Z,101261.25
2023-01-22T15:54:26.936Z,101257.00
2023-01-22T15:57:00.736Z,101258.03
2023-01-22T15:59:30.696Z,101269.53
2023-01-22T16:02:04.898Z,101271.97
2023-01-22T16:04:38.876Z,101287.19
2023-01-22T16:07:07.087Z,101278.38
2023-01-22T16:09:35.416Z,101285.88
2023-01-22T16:12:03.824Z,101288.84
2023-01-22T16:14:32.018Z,101289.09
2023-01-22T16:17:00.775Z,101289.38
2023-01-22T16:19:29.143Z,101295.50
2023-01-22T16:21:58.786Z,101294.69
2023-01-22T16:24:27.017Z,101306.47
2023-01-22T16:26:55.407Z,101304.06
2023-01-22T16:29:23.583Z,101300.34
2023-01-22T16:31:51.849Z,101307.28
2023-01-22T16:34:21.852Z,101313.16
2023-01-22T16:36:51.184Z,101308.06
2023-01-22T16:39:23.767Z,101303.53
2023-01-22T16:41:52.959Z,101310.75
2023-01-22T16:44:26.414Z,101317.97
2023-01-22T16:46:57.753Z,101322.81
2023-01-22T16:49:27.506Z,101325.47
2023-01-22T16:51:56.934Z,101316.38
2023-01-22T16:54:29.099Z,101317.97
2023-01-22T16:56:58.534Z,101330.28
2023-01-22T16:59:27.212Z,101321.19
2023-01-22T17:01:56.280Z,101327.59
2023-01-22T17:04:24.633Z,101333.72
2023-01-22T17:06:54.698Z,101324.13
2023-01-22T17:09:24.056Z,101336.94
2023-01-22T17:11:55.461Z,101339.91
2023-01-22T17:14:25.465Z,101342.56
2023-01-22T17:16:54.145Z,101338.56
2023-01-22T17:19:22.501Z,101338.28
2023-01-22T17:21:51.652Z,101343.63
2023-01-22T17:24:22.282Z,101341.75
2023-01-22T17:26:51.913Z,101345.22
2023-01-22T17:29:22.547Z,101340.94
2023-01-22T17:31:51.402Z,101344.16
2023-01-22T17:34:19.633Z,101345.78
2023-01-22T17:36:50.654Z,101355.38
2023-01-22T17:39:24.155Z,101352.72
2023-01-22T17:41:53.663Z,101350.56
2023-01-22T17:44:23.357Z,101363.16
2023-01-22T17:46:54.887Z,101371.97
2023-01-22T17:49:25.250Z,101352.72
2023-01-22T17:51:53.564Z,101369.28
2023-01-22T17:54:21.804Z,101368.50
2023-01-22T17:56:53.213Z,101354.59
2023-01-22T17:59:58.383Z,101360.72
2023-01-22T18:02:28.122Z,101380.22
2023-01-22T18:04:56.743Z,101390.13
2023-01-22T18:07:25.187Z,101393.31
2023-01-22T18:09:53.510Z,101391.19
2023-01-22T18:12:21.740Z,101389.31
2023-01-22T18:14:50.110Z,101396.00
2023-01-22T18:17:18.578Z,101405.06
2023-01-22T18:19:48.509Z,101400.00
2023-01-22T18:22:16.703Z,101405.09
2023-01-22T18:24:45.416Z,101412.00
2023-01-22T18:27:17.243Z,101419.97
2023-01-22T18:29:46.933Z,101419.72
2023-01-22T18:32:15.795Z,101421.31
2023-01-22T18:34:45.524Z,101423.44
2023-01-22T18:37:15.476Z,101419.69
2023-01-22T18:39:44.822Z,101431.16
2023-01-22T18:42:12.893Z,101427.94
2023-01-22T18:44:41.236Z,101429.81
2023-01-22T18:47:11.400Z,101430.09
2023-01-22T18:49:39.717Z,101439.69
2023-01-22T18:52:07.996Z,101440.22
2023-01-22T18:54:37.815Z,101449.84
2023-01-22T18:57:05.974Z,101442.91
2023-01-22T18:59:34.383Z,101456.78
2023-01-22T19:02:02.710Z,101451.44
2023-01-22T19:04:30.931Z,101461.34
2023-01-22T19:07:00.699Z,101470.13
2023-01-22T19:09:29.016Z,101459.19
2023-01-22T19:11:58.748Z,101465.31
2023-01-22T19:14:27.164Z,101474.94
2023-01-22T19:16:55.663Z,101470.94
2023-01-22T19:19:24.113Z,101464.28
2023-01-22T19:21:54.863Z,101462.66
2023-01-22T19:24:26.747Z,101465.84
2023-01-22T19:26:55.954Z,101464.25
2023-01-22T19:29:26.425Z,101467.22
2023-01-22T19:31:57.056Z,101464.25
2023-01-22T19:34:25.719Z,101477.56
2023-01-22T19:36:55.887Z,101470.09
2023-01-22T19:39:26.426Z,101477.56
2023-01-22T19:41:54.922Z,101475.69
2023-01-22T19:44:23.778Z,101472.22
2023-01-22T19:46:53.576Z,101476.25
2023-01-22T19:49:22.440Z,101479.94
2023-01-22T19:51:50.859Z,101480.50
2023-01-22T19:54:19.597Z,101481.81
2023-01-22T19:56:54.384Z,101474.59
2023-01-22T19:59:24.698Z,101473.81
2023-01-22T20:01:54.431Z,101480.22
2023-01-22T20:04:25.454Z,101477.25
2023-01-22T20:06:57.997Z,101483.44
2023-01-22T20:09:26.495Z,101479.72
2023-01-22T20:11:58.209Z,101476.50
2023-01-22T20:14:30.052Z,101479.13
2023-01-22T20:17:00.882Z,101474.38
2023-01-22T20:19:30.533Z,101462.06
2023-01-22T20:21:59.592Z,101467.69
2023-01-22T20:24:28.460Z,101470.38
2023-01-22T20:26:57.029Z,101467.97
2023-01-22T20:29:25.283Z,101476.78
2023-01-22T20:31:54.187Z,101474.91
2023-01-22T20:34:23.979Z,101485.31
2023-01-22T20:36:52.230Z,101491.44
2023-01-22T20:39:20.823Z,101486.63
2023-01-22T20:41:49.048Z,101487.16
2023-01-22T20:44:17.612Z,101482.88
2023-01-22T20:46:45.820Z,101491.16
2023-01-22T20:49:14.593Z,101500.75
2023-01-22T20:51:44.443Z,101502.88
2023-01-22T20:54:12.624Z,101506.84
2023-01-22T20:56:40.788Z,101497.50
2023-01-22T20:59:11.852Z,101511.94
2023-01-22T21:01:40.968Z,101506.34
2023-01-22T21:04:09.709Z,101514.09
2023-01-22T21:06:39.499Z,101506.88
2023-01-22T21:09:10.018Z,101513.00
2023-01-22T21:11:41.780Z,101526.84
2023-01-22T21:14:15.892Z,101516.69
2023-01-22T21:16:45.077Z,101523.91
2023-01-22T21:19:17.396Z,101516.94
2023-01-22T21:21:46.297Z,101511.09
2023-01-22T21:24:20.259Z,101505.22
2023-01-22T21:26:48.376Z,101502.28
2023-01-22T21:29:18.260Z,101504.69
2023-01-22T21:31:49.146Z,101505.75
2023-01-22T21:34:18.382Z,101511.81
2023-01-22T21:36:50.043Z,101507.84
2023-01-22T21:39:22.124Z,101510.50
2023-01-22T21:41:50.258Z,101500.41
2023-01-22T21:44:37.741Z,101507.84
2023-01-22T21:47:06.603Z,101513.44
2023-01-22T21:49:36.204Z,101507.00
2023-01-22T21:52:09.227Z,101512.06
2023-01-22T21:54:41.385Z,101532.81
2023-01-22T21:57:14.380Z,101497.06
2023-01-22T21:59:42.655Z,101505.84
2023-01-22T22:02:14.986Z,101499.94
2023-01-22T22:04:44.373Z,101509.03
2023-01-22T22:07:13.174Z,101498.13
2023-01-22T22:09:44.392Z,101492.78
2023-01-22T22:12:12.537Z,101504.56
2023-01-22T22:14:40.833Z,101484.53
2023-01-22T22:17:09.016Z,101491.22
2023-01-22T22:19:37.194Z,101485.91
2023-01-22T22:22:05.353Z,101489.84
2023-01-22T22:24:33.459Z,101484.25
2023-01-22T22:27:03.086Z,101484.44
2023-01-22T22:29:31.428Z,101476.69
2023-01-22T22:31:59.694Z,101487.63
2023-01-22T22:34:27.973Z,101481.53
2023-01-22T22:36:56.303Z,101483.13
2023-01-22T22:39:24.459Z,101486.59
2023-01-22T22:41:52.530Z,101483.41
2023-01-22T22:44:22.151Z,101477.25
2023-01-22T22:46:50.337Z,101475.41
2023-01-22T22:49:18.426Z,101479.41
2023-01-22T22:51:47.475Z,101471.97
2023-01-22T22:54:17.757Z,101481.00
2023-01-22T22:56:47.452Z,101486.88
2023-01-22T22:59:18.774Z,101468.72
2023-01-22T23:01:49.300Z,101474.06
2023-01-22T23:04:29.499Z,101472.47
2023-01-22T23:06:57.759Z,101463.38
2023-01-22T23:09:25.910Z,101472.25
2023-01-22T23:11:56.173Z,101470.13
2023-01-22T23:14:24.609Z,101484.53
2023-01-22T23:16:54.432Z,101473.53
2023-01-22T23:19:24.472Z,101486.34
2023-01-22T23:21:54.711Z,101481.59
2023-01-22T23:24:23.141Z,101485.28
2023-01-22T23:26:51.730Z,101478.59
2023-01-22T23:29:26.731Z,101488.72
2023-01-22T23:31:56.886Z,101489.53
2023-01-22T23:34:25.216Z,101494.41
2023-01-22T23:36:53.376Z,101506.38
2023-01-22T23:39:22.626Z,101487.22
2023-01-22T23:41:50.963Z,101486.94
2023-01-22T23:44:19.158Z,101509.03
2023-01-22T23:46:47.395Z,101498.38
2023-01-22T23:49:16.898Z,101505.81
2023-01-22T23:51:45.879Z,101508.47
2023-01-22T23:54:14.093Z,101530.03
2023-01-22T23:56:42.206Z,101520.94
2023-01-22T23:59:14.524Z,101533.75
